createdAt,value
2023-05-11T00:01:19.826Z,9.43
2023-05-11T00:04:23.409Z,8.67
2023-05-11T00:07:27.082Z,9.50
2023-05-11T00:10:31.224Z,10.10
2023-05-11T00:13:36.227Z,9.43
2023-05-11T00:16:39.740Z,11.37
2023-05-11T00:19:43.269Z,11.30
2023-05-11T00:22:46.800Z,12.33
2023-05-11T00:25:50.328Z,14.67
2023-05-11T00:28:55.261Z,17.27
2023-05-11T00:31:58.793Z,16.80
2023-05-11T00:35:02.404Z,16.40
2023-05-11T00:38:06.076Z,16.77
2023-05-11T00:41:10.039Z,17.83
2023-05-11T00:44:15.185Z,17.57
2023-05-11T00:47:19.037Z,18.93
2023-05-11T00:50:22.981Z,20.27
2023-05-11T00:53:27.055Z,18.90
2023-05-11T00:56:30.808Z,19.20
2023-05-11T00:59:36.598Z,19.00
2023-05-11T01:02:41.811Z,19.13
2023-05-11T01:05:54.078Z,18.30
2023-05-11T01:09:07.218Z,18.23
2023-05-11T01:12:25.669Z,18.03
2023-05-11T01:15:40.058Z,17.30
2023-05-11T01:18:53.265Z,19.00
2023-05-11T01:21:57.042Z,17.27
2023-05-11T01:25:23.080Z,18.47
2023-05-11T01:28:58.681Z,19.17
2023-05-11T01:32:15.500Z,17.27
2023-05-11T01:35:23.419Z,17.73
2023-05-11T01:38:33.593Z,18.40
2023-05-11T01:41:41.370Z,18.53
2023-05-11T01:44:51.543Z,17.93
2023-05-11T01:47:59.054Z,17.20
2023-05-11T01:51:05.688Z,19.00
2023-05-11T01:54:11.248Z,19.23
2023-05-11T01:57:16.466Z,18.80
2023-05-11T02:00:21.808Z,17.93
2023-05-11T02:03:29.551Z,19.57
2023-05-11T02:06:36.814Z,18.80
2023-05-11T02:09:41.694Z,18.57
2023-05-11T02:12:47.358Z,18.40
2023-05-11T02:15:54.694Z,18.10
2023-05-11T02:19:01.262Z,17.83
2023-05-11T02:22:06.626Z,19.03
2023-05-11T02:25:12.583Z,18.90
2023-05-11T02:28:17.616Z,18.30
2023-05-11T02:31:26.830Z,18.30
2023-05-11T02:34:42.168Z,17.30
2023-05-11T02:37:50.702Z,17.80
2023-05-11T02:40:59.992Z,17.87
2023-05-11T02:44:08.637Z,16.53
2023-05-11T02:47:16.444Z,17.23
2023-05-11T02:50:24.425Z,17.13
2023-05-11T02:53:33.393Z,16.33
2023-05-11T02:56:37.950Z,16.73
2023-05-11T02:59:41.673Z,16.33
2023-05-11T03:02:45.336Z,15.23
2023-05-11T03:05:50.297Z,16.77
2023-05-11T03:08:54.375Z,16.83
2023-05-11T03:11:59.051Z,16.20
2023-05-11T03:15:05.882Z,15.47
2023-05-11T03:18:10.334Z,14.90
2023-05-11T03:21:20.794Z,15.17
2023-05-11T03:24:26.200Z,15.50
2023-05-11T03:27:31.533Z,14.50
2023-05-11T03:30:36.478Z,12.87
2023-05-11T03:33:40.006Z,12.57
2023-05-11T03:36:49.574Z,13.97
2023-05-11T03:39:59.250Z,14.30
2023-05-11T03:43:06.331Z,13.47
2023-05-11T03:46:13.278Z,12.57
2023-05-11T03:49:18.177Z,14.20
2023-05-11T03:52:24.429Z,12.80
2023-05-11T03:55:28.257Z,13.90
2023-05-11T03:58:33.262Z,14.03
2023-05-11T04:01:37.419Z,14.73
2023-05-11T04:04:41.057Z,13.23
2023-05-11T04:07:46.393Z,14.37
2023-05-11T04:10:49.907Z,14.50
2023-05-11T04:13:53.448Z,12.67
2023-05-11T04:16:57.056Z,15.90
2023-05-11T04:20:00.758Z,14.10
2023-05-11T04:23:06.307Z,14.67
2023-05-11T04:26:10.814Z,14.83
2023-05-11T04:29:14.333Z,14.77
2023-05-11T04:32:17.839Z,14.97
2023-05-11T04:35:22.002Z,14.43
2023-05-11T04:38:27.498Z,15.07
2023-05-11T04:41:31.212Z,14.83
2023-05-11T04:44:34.718Z,14.57
2023-05-11T04:47:38.231Z,17.17
2023-05-11T04:50:41.950Z,14.63
2023-05-11T04:53:47.542Z,15.13
2023-05-11T04:56:51.093Z,14.23
2023-05-11T04:59:54.566Z,15.47
2023-05-11T05:02:58.241Z,13.80
2023-05-11T05:06:01.749Z,12.77
2023-05-11T05:09:07.013Z,13.33
2023-05-11T05:12:10.483Z,13.37
2023-05-11T05:15:14.330Z,14.33
2023-05-11T05:18:17.879Z,13.90
2023-05-11T05:21:21.517Z,11.70
2023-05-11T05:24:26.521Z,12.33
2023-05-11T05:27:30.794Z,12.17
2023-05-11T05:30:37.193Z,12.47
2023-05-11T05:33:41.033Z,11.60
2023-05-11T05:36:44.500Z,11.63
2023-05-11T05:39:49.385Z,12.03
2023-05-11T05:42:53.141Z,13.10
2023-05-11T05:45:56.776Z,12.23
2023-05-11T05:49:00.493Z,12.10
2023-05-11T05:52:04.118Z,12.00
2023-05-11T05:55:10.121Z,11.10
2023-05-11T05:58:13.820Z,12.67
2023-05-11T06:01:17.421Z,11.43
2023-05-11T06:04:21.029Z,12.90
2023-05-11T06:07:24.657Z,12.47
2023-05-11T06:10:29.623Z,11.30
2023-05-11T06:13:33.112Z,12.07
2023-05-11T06:16:36.654Z,10.67
2023-05-11T06:19:40.606Z,10.87
2023-05-11T06:22:44.148Z,9.90
2023-05-11T06:25:49.057Z,11.47
2023-05-11T06:28:52.874Z,11.60
2023-05-11T06:31:56.688Z,11.37
2023-05-11T06:35:00.244Z,10.87
2023-05-11T06:38:03.769Z,10.40
2023-05-11T06:41:11.388Z,11.40
2023-05-11T06:44:15.005Z,9.73
2023-05-11T06:47:18.482Z,9.13
2023-05-11T06:50:23.399Z,8.97
2023-05-11T06:53:28.749Z,9.30
2023-05-11T06:56:34.163Z,8.73
2023-05-11T06:59:37.644Z,9.33
2023-05-11T07:02:41.154Z,9.83
2023-05-11T07:05:44.953Z,10.33
2023-05-11T07:08:48.477Z,10.63
2023-05-11T07:11:53.700Z,9.97
2023-05-11T07:14:57.133Z,9.27
2023-05-11T07:18:01.466Z,10.60
2023-05-11T07:21:05.229Z,10.60
2023-05-11T07:24:08.968Z,10.80
2023-05-11T07:27:14.965Z,11.27
2023-05-11T07:30:19.009Z,10.20
2023-05-11T07:33:22.596Z,9.67
2023-05-11T07:36:26.576Z,10.93
2023-05-11T07:39:30.107Z,8.93
2023-05-11T07:42:35.008Z,8.63
2023-05-11T07:45:38.573Z,8.70
2023-05-11T07:48:42.125Z,9.00
2023-05-11T07:51:45.850Z,10.30
2023-05-11T07:54:49.388Z,10.77
2023-05-11T07:57:55.713Z,10.50
2023-05-11T08:00:59.906Z,10.20
2023-05-11T08:04:03.432Z,9.93
2023-05-11T08:07:07.225Z,8.73
2023-05-11T08:10:12.963Z,8.67
2023-05-11T08:13:17.853Z,9.43
2023-05-11T08:16:21.400Z,9.03
2023-05-11T08:19:24.939Z,9.20
2023-05-11T08:22:28.486Z,9.27
2023-05-11T08:25:32.425Z,9.00
2023-05-11T08:28:37.281Z,8.57
2023-05-11T08:31:41.019Z,9.23
2023-05-11T08:34:45.932Z,8.87
2023-05-11T08:37:49.526Z,8.10
2023-05-11T08:40:54.014Z,8.87
2023-05-11T08:44:02.123Z,8.83
2023-05-11T08:47:21.952Z,8.87
2023-05-11T08:50:26.613Z,9.50
2023-05-11T08:53:30.257Z,9.00
2023-05-11T08:56:36.108Z,9.10
2023-05-11T08:59:42.650Z,10.00
2023-05-11T09:02:47.497Z,10.27
2023-05-11T09:05:51.823Z,10.03
2023-05-11T09:08:55.796Z,9.87
2023-05-11T09:11:59.525Z,9.67
2023-05-11T09:15:04.715Z,8.90
2023-05-11T09:18:08.735Z,9.47
2023-05-11T09:21:14.032Z,9.93
2023-05-11T09:24:17.634Z,10.13
2023-05-11T09:27:21.507Z,10.17
2023-05-11T09:30:26.793Z,10.97
2023-05-11T09:33:30.398Z,9.77
2023-05-11T09:36:33.999Z,9.27
2023-05-11T09:39:44.571Z,9.03
2023-05-11T09:42:51.104Z,9.67
2023-05-11T09:45:58.103Z,10.13
2023-05-11T09:49:02.333Z,9.43
2023-05-11T09:52:06.830Z,8.33
2023-05-11T09:55:12.219Z,8.87
2023-05-11T09:58:16.297Z,8.67
2023-05-11T10:01:32.400Z,8.67
2023-05-11T10:04:36.217Z,9.27
2023-05-11T10:07:40.042Z,9.73
2023-05-11T10:10:43.798Z,9.70
2023-05-11T10:13:47.659Z,8.37
2023-05-11T10:16:54.957Z,8.40
2023-05-11T10:20:00.190Z,7.53
2023-05-11T10:23:04.852Z,6.83
2023-05-11T10:26:08.553Z,7.30
2023-05-11T10:29:13.339Z,7.43
2023-05-11T10:32:19.617Z,6.87
2023-05-11T10:35:23.689Z,7.00
2023-05-11T10:38:27.789Z,7.87
2023-05-11T10:41:53.666Z,8.13
2023-05-11T10:45:21.604Z,6.80
2023-05-11T10:49:06.719Z,7.20
2023-05-11T10:52:43.929Z,7.40
2023-05-11T10:56:10.191Z,7.00
2023-05-11T10:59:57.914Z,7.20
2023-05-11T11:03:11.621Z,7.17
2023-05-11T11:06:26.032Z,7.17
2023-05-11T11:09:29.703Z,7.77
2023-05-11T11:12:35.043Z,6.87
2023-05-11T11:16:09.903Z,7.30
2023-05-11T11:19:39.595Z,7.57
2023-05-11T11:22:48.173Z,7.27
2023-05-11T11:25:55.011Z,6.70
2023-05-11T11:29:14.437Z,7.20
2023-05-11T11:32:28.762Z,7.13
2023-05-11T11:35:48.852Z,5.80
2023-05-11T11:39:01.316Z,7.17
2023-05-11T11:42:08.170Z,6.57
2023-05-11T11:45:32.336Z,6.13
2023-05-11T11:48:37.670Z,6.03
2023-05-11T11:51:42.189Z,5.70
2023-05-11T11:54:47.372Z,5.97
2023-05-11T11:57:51.426Z,5.97
2023-05-11T12:00:56.401Z,5.47
2023-05-11T12:04:50.991Z,5.30
2023-05-11T12:07:55.261Z,4.77
2023-05-11T12:11:01.485Z,5.37
2023-05-11T12:14:05.834Z,5.20
2023-05-11T12:17:15.971Z,5.13
2023-05-11T12:20:21.900Z,4.60
2023-05-11T12:23:25.478Z,4.97
2023-05-11T12:26:32.245Z,4.87
2023-05-11T12:29:35.797Z,5.03
2023-05-11T12:32:39.991Z,5.30
2023-05-11T12:35:46.291Z,4.93
2023-05-11T12:38:51.035Z,5.33
2023-05-11T12:41:57.399Z,5.87
2023-05-11T12:45:01.100Z,5.37
2023-05-11T12:48:05.930Z,5.20
2023-05-11T12:51:09.514Z,5.83
2023-05-11T12:54:13.089Z,6.00
2023-05-11T12:57:26.946Z,6.70
2023-05-11T13:00:30.480Z,5.87
2023-05-11T13:03:36.111Z,6.00
2023-05-11T13:06:39.936Z,6.37
2023-05-11T13:09:43.716Z,6.33
2023-05-11T13:12:52.927Z,5.70
2023-05-11T13:15:56.786Z,5.63
2023-05-11T13:19:01.846Z,6.40
2023-05-11T13:22:06.584Z,6.03
2023-05-11T13:25:10.873Z,6.07
2023-05-11T13:28:17.642Z,6.17
2023-05-11T13:31:21.481Z,5.57
2023-05-11T13:34:26.988Z,6.50
2023-05-11T13:37:30.610Z,6.10
2023-05-11T13:40:35.010Z,6.33
2023-05-11T13:43:40.277Z,5.83
2023-05-11T13:46:43.988Z,5.80
2023-05-11T13:49:47.540Z,6.20
2023-05-11T13:52:51.632Z,6.33
2023-05-11T13:55:55.158Z,6.77
2023-05-11T13:59:00.319Z,6.70
2023-05-11T14:02:04.142Z,6.93
2023-05-11T14:05:09.145Z,6.80
2023-05-11T14:08:12.628Z,7.47
2023-05-11T14:11:16.379Z,7.67
2023-05-11T14:14:21.246Z,6.93
2023-05-11T14:17:24.912Z,6.30
2023-05-11T14:20:28.557Z,6.90
2023-05-11T14:23:32.061Z,6.17
2023-05-11T14:26:35.600Z,5.80
2023-05-11T14:29:43.300Z,5.67
2023-05-11T14:32:48.629Z,6.40
2023-05-11T14:35:52.471Z,5.73
2023-05-11T14:38:55.919Z,4.83
2023-05-11T14:41:59.405Z,5.53
2023-05-11T14:45:04.447Z,5.37
2023-05-11T14:48:08.620Z,5.53
2023-05-11T14:51:12.210Z,5.87
2023-05-11T14:54:15.846Z,5.80
2023-05-11T14:57:19.379Z,5.07
2023-05-11T15:00:24.544Z,5.90
2023-05-11T15:03:28.672Z,5.23
2023-05-11T15:06:32.432Z,5.67
2023-05-11T15:09:35.915Z,6.77
2023-05-11T15:12:39.646Z,5.97
2023-05-11T15:15:44.576Z,6.17
2023-05-11T15:18:48.190Z,6.30
2023-05-11T15:21:51.699Z,5.93
2023-05-11T15:24:56.067Z,6.47
2023-05-11T15:27:59.712Z,6.23
2023-05-11T15:31:04.681Z,6.40
2023-05-11T15:34:08.414Z,5.47
2023-05-11T15:37:12.548Z,7.10
2023-05-11T15:40:16.309Z,6.90
2023-05-11T15:43:19.933Z,6.30
2023-05-11T15:46:24.953Z,6.63
2023-05-11T15:49:28.552Z,6.93
2023-05-11T15:52:32.115Z,7.63
2023-05-11T15:55:36.995Z,7.60
2023-05-11T15:58:40.520Z,7.43
2023-05-11T16:01:45.578Z,6.70
2023-05-11T16:04:49.274Z,8.00
2023-05-11T16:07:52.874Z,8.00
2023-05-11T16:10:56.394Z,7.97
2023-05-11T16:14:00.292Z,8.80
2023-05-11T16:17:05.923Z,8.27
2023-05-11T16:20:11.241Z,8.67
2023-05-11T16:23:14.737Z,12.03
2023-05-11T16:26:18.260Z,8.87
2023-05-11T16:29:21.738Z,9.93
2023-05-11T16:32:27.015Z,8.90
2023-05-11T16:35:30.741Z,9.70
2023-05-11T16:38:34.200Z,10.53
2023-05-11T16:41:37.729Z,10.80
2023-05-11T16:44:41.225Z,10.27
2023-05-11T16:47:46.306Z,10.27
2023-05-11T16:50:49.976Z,10.60
2023-05-11T16:53:53.491Z,10.33
2023-05-11T16:56:57.818Z,11.33
2023-05-11T17:00:01.241Z,12.27
2023-05-11T17:03:06.425Z,10.63
2023-05-11T17:06:13.569Z,11.13
2023-05-11T17:09:17.330Z,11.07
2023-05-11T17:12:20.782Z,12.70
2023-05-11T17:15:24.428Z,12.47
2023-05-11T17:18:29.378Z,11.07
2023-05-11T17:21:33.447Z,13.13
2023-05-11T17:24:37.194Z,12.43
2023-05-11T17:27:41.802Z,12.13
2023-05-11T17:30:48.825Z,11.57
2023-05-11T17:33:54.412Z,12.47
2023-05-11T17:36:58.577Z,11.17
2023-05-11T17:40:02.685Z,12.43
2023-05-11T17:43:06.201Z,13.33
2023-05-11T17:46:09.834Z,13.03
2023-05-11T17:49:14.907Z,12.23
2023-05-11T17:52:18.958Z,12.67
2023-05-11T17:55:24.166Z,13.43
2023-05-11T17:58:27.971Z,12.90
2023-05-11T18:01:31.879Z,13.13
2023-05-11T18:04:36.918Z,12.90
2023-05-11T18:07:40.605Z,12.50
2023-05-11T18:10:44.296Z,13.43
2023-05-11T18:13:47.977Z,13.33
2023-05-11T18:16:54.089Z,13.03
2023-05-11T18:19:59.057Z,14.37
2023-05-11T18:23:02.636Z,14.23
2023-05-11T18:26:06.987Z,14.33
2023-05-11T18:29:10.593Z,14.73
2023-05-11T18:32:14.149Z,16.27
2023-05-11T18:35:19.985Z,15.13
2023-05-11T18:38:23.484Z,15.63
2023-05-11T18:41:27.247Z,15.30
2023-05-11T18:44:30.867Z,17.70
2023-05-11T18:47:35.786Z,16.67
2023-05-11T18:50:40.685Z,17.50
2023-05-11T18:53:44.212Z,17.93
2023-05-11T18:56:47.710Z,18.47
2023-05-11T18:59:52.650Z,17.27
2023-05-11T19:02:56.627Z,20.10
2023-05-11T19:06:02.730Z,19.70
2023-05-11T19:09:06.825Z,20.07
2023-05-11T19:12:10.868Z,18.83
2023-05-11T19:15:14.368Z,18.83
2023-05-11T19:18:18.407Z,18.93
2023-05-11T19:21:23.346Z,18.53
2023-05-11T19:24:28.512Z,20.07
2023-05-11T19:27:32.186Z,20.57
2023-05-11T19:30:35.953Z,19.97
2023-05-11T19:33:39.465Z,18.83
2023-05-11T19:36:44.638Z,20.60
2023-05-11T19:39:48.798Z,18.50
2023-05-11T19:42:52.873Z,18.97
2023-05-11T19:45:57.087Z,19.47
2023-05-11T19:49:00.651Z,18.93
2023-05-11T19:52:06.122Z,18.87
2023-05-11T19:55:10.333Z,19.23
2023-05-11T19:58:13.947Z,20.37
2023-05-11T20:01:17.552Z,19.47
2023-05-11T20:04:21.141Z,19.67
2023-05-11T20:07:26.316Z,18.60
2023-05-11T20:10:29.967Z,19.23
2023-05-11T20:13:34.339Z,18.17
2023-05-11T20:16:38.089Z,16.23
2023-05-11T20:19:41.838Z,17.10
2023-05-11T20:22:46.772Z,18.00
2023-05-11T20:25:50.506Z,15.93
2023-05-11T20:28:54.072Z,14.70
2023-05-11T20:31:57.706Z,12.80
2023-05-11T20:35:01.370Z,11.73
2023-05-11T20:38:06.896Z,10.43
2023-05-11T20:41:10.575Z,10.27
2023-05-11T20:44:14.084Z,10.90
2023-05-11T20:47:17.802Z,9.10
2023-05-11T20:50:21.880Z,8.77
2023-05-11T20:53:27.092Z,8.63
2023-05-11T20:56:30.611Z,8.60
2023-05-11T21:02:40.755Z,8.23
2023-05-11T21:05:44.293Z,8.23
2023-05-11T21:08:49.311Z,8.57
2023-05-11T21:11:52.828Z,8.80
2023-05-11T21:14:57.062Z,7.93
2023-05-11T21:18:02.020Z,9.13
2023-05-11T21:21:06.595Z,9.00
2023-05-11T21:24:13.908Z,9.47
2023-05-11T21:27:17.547Z,8.93
2023-05-11T21:30:21.456Z,9.10
2023-05-11T21:33:25.489Z,9.10
2023-05-11T21:36:29.320Z,8.33
2023-05-11T21:39:34.538Z,8.13
2023-05-11T21:42:38.066Z,8.43
2023-05-11T21:45:41.523Z,8.27
2023-05-11T21:48:45.386Z,8.73
2023-05-11T21:51:50.150Z,8.17
2023-05-11T21:54:55.081Z,8.00
2023-05-11T21:57:58.639Z,8.57
2023-05-11T22:01:02.625Z,7.53
2023-05-11T22:04:06.675Z,7.80
2023-05-11T22:07:10.631Z,7.97
2023-05-11T22:10:15.638Z,8.07
2023-05-11T22:13:19.302Z,8.30
2023-05-11T22:16:22.869Z,8.17
2023-05-11T22:19:27.212Z,8.23
2023-05-11T22:22:30.807Z,8.20
2023-05-11T22:25:35.739Z,8.00
2023-05-11T22:28:39.392Z,7.93
2023-05-11T22:31:45.916Z,8.37
2023-05-11T22:34:59.367Z,7.77
2023-05-11T22:38:04.319Z,7.50
2023-05-11T22:41:09.645Z,8.00
2023-05-11T22:44:13.160Z,8.20
2023-05-11T22:47:16.769Z,7.87
2023-05-11T22:50:20.549Z,8.10
2023-05-11T22:53:24.179Z,9.27
2023-05-11T22:56:30.613Z,8.13
2023-05-11T22:59:34.504Z,8.70
2023-05-11T23:02:38.633Z,8.87
2023-05-11T23:05:42.137Z,9.23
2023-05-11T23:08:45.829Z,9.53
2023-05-11T23:11:50.633Z,9.73
2023-05-11T23:14:54.138Z,8.93
2023-05-11T23:17:57.690Z,8.23
2023-05-11T23:21:01.804Z,9.80
2023-05-11T23:24:07.073Z,9.13
2023-05-11T23:27:12.169Z,9.30
2023-05-11T23:30:15.960Z,9.43
2023-05-11T23:33:19.569Z,10.20
2023-05-11T23:36:23.241Z,9.53
2023-05-11T23:39:26.754Z,9.77
2023-05-11T23:42:32.004Z,9.43
2023-05-11T23:45:35.983Z,9.43
2023-05-11T23:48:40.465Z,10.77
2023-05-11T23:51:44.565Z,10.27
2023-05-11T23:54:49.455Z,10.00
2023-05-11T23:57:55.746Z,10.03
